sensor_id;sensor_type;location;lat;lon;timestamp;pressure;altitude;pressure_sealevel;temperature;humidity
56558;BME280;43358;50.356;12.456;2023-05-08T05:21:39;95963;;;11.2;83.8
56558;BME280;43358;50.356;12.456;2023-05-08T05:23:00;96153;;;7.6;88.8
56558;BME280;43358;50.356;12.456;2023-05-08T06:04:04;96153;;;7.6;88.4
56558;BME280;43358;50.356;12.456;2023-05-08T06:05:14;96153;;;8.4;85.9
56558;BME280;43358;50.356;12.456;2023-05-08T06:06:32;96155;;;8.4;86.6
56558;BME280;43358;50.356;12.456;2023-05-08T06:07:35;96156;;;8.4;86.5
56558;BME280;43358;50.356;12.456;2023-05-08T06:08:36;96151;;;8.4;85.2
56558;BME280;43358;50.356;12.456;2023-05-08T06:09:39;96153;;;8.4;84.9
56558;BME280;43358;50.356;12.456;2023-05-08T06:10:41;96152;;;8.4;84.8
56558;BME280;43358;50.356;12.456;2023-05-08T06:11:43;96160;;;8.4;85.3
56558;BME280;43358;50.356;12.456;2023-05-08T06:12:45;96155;;;8.4;85.3
56558;BME280;43358;50.356;12.456;2023-05-08T06:13:47;96158;;;8.4;85.7
56558;BME280;43358;50.356;12.456;2023-05-08T06:14:51;96159;;;8.5;85.9
56558;BME280;43358;50.356;12.456;2023-05-08T06:15:53;96160;;;8.4;85.2
56558;BME280;43358;50.356;12.456;2023-05-08T06:16:55;96155;;;8.4;85.9
56558;BME280;43358;50.356;12.456;2023-05-08T06:17:57;96153;;;8.4;85.7
56558;BME280;43358;50.356;12.456;2023-05-08T06:18:59;96151;;;8.4;84.8
56558;BME280;43358;50.356;12.456;2023-05-08T06:20:01;96155;;;8.4;85
56558;BME280;43358;50.356;12.456;2023-05-08T06:21:03;96150;;;8.4;85.4
56558;BME280;43358;50.356;12.456;2023-05-08T06:22:07;96153;;;8.4;86.2
56558;BME280;43358;50.356;12.456;2023-05-08T06:24:11;96157;;;8.4;86.6
56558;BME280;43358;50.356;12.456;2023-05-08T06:25:13;96156;;;8.4;85.6
56558;BME280;43358;50.356;12.456;2023-05-08T06:26:15;96159;;;8.4;85.3
56558;BME280;43358;50.356;12.456;2023-05-08T06:27:17;96159;;;8.4;86
56558;BME280;43358;50.356;12.456;2023-05-08T06:28:19;96156;;;8.5;86.4
56558;BME280;43358;50.356;12.456;2023-05-08T06:29:21;96162;;;8.5;85.6
56558;BME280;43358;50.356;12.456;2023-05-08T06:30:54;96166;;;8.5;86.3
56558;BME280;43358;50.356;12.456;2023-05-08T06:31:25;96164;;;8.5;85.8
56558;BME280;43358;50.356;12.456;2023-05-08T06:32:27;96169;;;8.5;85.9
56558;BME280;43358;50.356;12.456;2023-05-08T06:33:29;96167;;;8.5;86.1
56558;BME280;43358;50.356;12.456;2023-05-08T06:34:31;96171;;;8.6;86.3
56558;BME280;43358;50.356;12.456;2023-05-08T06:35:33;96171;;;8.6;84.9
56558;BME280;43358;50.356;12.456;2023-05-08T06:36:35;96171;;;8.5;85.1
56558;BME280;43358;50.356;12.456;2023-05-08T06:37:37;96178;;;8.5;85.7
56558;BME280;43358;50.356;12.456;2023-05-08T06:38:39;96178;;;8.5;86.1
56558;BME280;43358;50.356;12.456;2023-05-08T06:39:41;96174;;;8.6;85.8
56558;BME280;43358;50.356;12.456;2023-05-08T06:40:43;96174;;;8.6;85.7
56558;BME280;43358;50.356;12.456;2023-05-08T06:42:47;96177;;;8.7;84.4
56558;BME280;43358;50.356;12.456;2023-05-08T06:43:49;96174;;;8.7;85.3
56558;BME280;43358;50.356;12.456;2023-05-08T07:32:14;96172;;;8.7;84.3
56558;BME280;43358;50.356;12.456;2023-05-08T07:32:15;96179;;;8.7;84.6
56558;BME280;43358;50.356;12.456;2023-05-08T07:32:53;96169;;;10.6;78
56558;BME280;43358;50.356;12.456;2023-05-08T07:33:55;96177;;;10.5;79.1
56558;BME280;43358;50.356;12.456;2023-05-08T07:34:57;96178;;;10.6;81
56558;BME280;43358;50.356;12.456;2023-05-08T07:46:45;96172;;;11.2;76.1
56558;BME280;43358;50.356;12.456;2023-05-08T07:47:48;96170;;;11.3;76.1
56558;BME280;43358;50.356;12.456;2023-05-08T07:50:25;96169;;;11.4;75.9
56558;BME280;43358;50.356;12.456;2023-05-08T07:54:42;96172;;;11.5;75.3
56558;BME280;43358;50.356;12.456;2023-05-08T07:55:49;96173;;;11.6;75.5
56558;BME280;43358;50.356;12.456;2023-05-08T07:57:01;96167;;;11.5;75.6
56558;BME280;43358;50.356;12.456;2023-05-08T08:00:13;96173;;;11.6;76.2
56558;BME280;43358;50.356;12.456;2023-05-08T08:00:17;96176;;;11.7;75.9
56558;BME280;43358;50.356;12.456;2023-05-08T08:01:27;96170;;;11.8;75.4
56558;BME280;43358;50.356;12.456;2023-05-08T08:02:30;96171;;;11.9;75.3
56558;BME280;43358;50.356;12.456;2023-05-08T08:05:36;96167;;;12;74.2
56558;BME280;43358;50.356;12.456;2023-05-08T08:09:42;96163;;;12.4;71.5
56558;BME280;43358;50.356;12.456;2023-05-08T08:10:42;96160;;;12.4;71.8
56558;BME280;43358;50.356;12.456;2023-05-08T08:11:55;96161;;;12.5;73.4
56558;BME280;43358;50.356;12.456;2023-05-08T08:12:42;96160;;;12.5;73.2
56558;BME280;43358;50.356;12.456;2023-05-08T08:13:42;96160;;;12.6;72.4
56558;BME280;43358;50.356;12.456;2023-05-08T08:14:42;96158;;;12.7;70
56558;BME280;43358;50.356;12.456;2023-05-08T08:15:42;96161;;;12.7;71.3
56558;BME280;43358;50.356;12.456;2023-05-08T08:16:59;96156;;;12.8;71.4
56558;BME280;43358;50.356;12.456;2023-05-08T08:21:21;96156;;;12.9;72.9
56558;BME280;43358;50.356;12.456;2023-05-08T08:23:36;96157;;;13;70.8
56558;BME280;43358;50.356;12.456;2023-05-08T08:58:37;96149;;;13.3;69.3
56558;BME280;43358;50.356;12.456;2023-05-08T08:58:39;96153;;;13.3;70
56558;BME280;43358;50.356;12.456;2023-05-08T08:59:12;96135;;;14.1;68.4
56558;BME280;43358;50.356;12.456;2023-05-08T09:00:14;96138;;;14.2;65.8
56558;BME280;43358;50.356;12.456;2023-05-08T09:01:18;96141;;;14.2;65.8
56558;BME280;43358;50.356;12.456;2023-05-08T09:02:21;96139;;;14.1;66.3
56558;BME280;43358;50.356;12.456;2023-05-08T09:03:24;96138;;;14.1;68.1
56558;BME280;43358;50.356;12.456;2023-05-08T09:04:26;96143;;;14.1;67.2
56558;BME280;43358;50.356;12.456;2023-05-08T09:05:28;96139;;;14.1;68.6
56558;BME280;43358;50.356;12.456;2023-05-08T09:06:32;96142;;;14.1;70
56558;BME280;43358;50.356;12.456;2023-05-08T09:07:32;96140;;;14.2;69.2
56558;BME280;43358;50.356;12.456;2023-05-08T09:08:34;96135;;;14.2;68.6
56558;BME280;43358;50.356;12.456;2023-05-08T09:09:38;96137;;;14.3;67.8
56558;BME280;43358;50.356;12.456;2023-05-08T09:10:40;96135;;;14.3;67.8
56558;BME280;43358;50.356;12.456;2023-05-08T09:11:42;96134;;;14.3;66.2
56558;BME280;43358;50.356;12.456;2023-05-08T09:12:44;96131;;;14.3;67.5
56558;BME280;43358;50.356;12.456;2023-05-08T09:13:46;96133;;;14.3;67.6
56558;BME280;43358;50.356;12.456;2023-05-08T09:14:49;96132;;;14.3;67.6
56558;BME280;43358;50.356;12.456;2023-05-08T09:15:50;96130;;;14.3;67.4
56558;BME280;43358;50.356;12.456;2023-05-08T09:16:52;96128;;;14.3;67.4
56558;BME280;43358;50.356;12.456;2023-05-08T09:17:54;96130;;;14.3;67
56558;BME280;43358;50.356;12.456;2023-05-08T09:18:56;96135;;;14.4;68.6
56558;BME280;43358;50.356;12.456;2023-05-08T09:19:58;96130;;;14.4;66.7
56558;BME280;43358;50.356;12.456;2023-05-08T09:21:00;96127;;;14.5;65.1
56558;BME280;43358;50.356;12.456;2023-05-08T09:23:19;96124;;;14.4;65.7
56558;BME280;43358;50.356;12.456;2023-05-08T09:23:58;96124;;;14.4;68.4
56558;BME280;43358;50.356;12.456;2023-05-08T09:24:58;96125;;;14.5;68.1
56558;BME280;43358;50.356;12.456;2023-05-08T09:25:42;96126;;;14.5;67.4
56558;BME280;43358;50.356;12.456;2023-05-08T09:26:42;96127;;;14.6;66.8
56558;BME280;43358;50.356;12.456;2023-05-08T09:27:42;96128;;;14.7;67
56558;BME280;43358;50.356;12.456;2023-05-08T09:28:42;96126;;;14.7;66.1
56558;BME280;43358;50.356;12.456;2023-05-08T09:29:42;96124;;;14.8;65.3
56558;BME280;43358;50.356;12.456;2023-05-08T09:31:42;96123;;;14.9;65.3
56558;BME280;43358;50.356;12.456;2023-05-08T09:32:43;96121;;;15;64.3
56558;BME280;43358;50.356;12.456;2023-05-08T09:34:50;96121;;;15;65.5
56558;BME280;43358;50.356;12.456;2023-05-08T09:35:48;96123;;;15.1;63.3
56558;BME280;43358;50.356;12.456;2023-05-08T09:36:51;96119;;;15.1;65.9
56558;BME280;43358;50.356;12.456;2023-05-08T09:37:53;96123;;;15.1;64.3
56558;BME280;43358;50.356;12.456;2023-05-08T09:38:55;96123;;;15.2;65.2
56558;BME280;43358;50.356;12.456;2023-05-08T09:40:11;96120;;;15.2;64.8
56558;BME280;43358;50.356;12.456;2023-05-08T09:41:08;96124;;;15.2;64.8
56558;BME280;43358;50.356;12.456;2023-05-08T09:42:01;96120;;;15.3;64.2
56558;BME280;43358;50.356;12.456;2023-05-08T09:43:10;96120;;;15.4;63.3
56558;BME280;43358;50.356;12.456;2023-05-08T09:44:42;96123;;;15.4;63.2
56558;BME280;43358;50.356;12.456;2023-05-08T09:45:42;96120;;;15.4;63.7
56558;BME280;43358;50.356;12.456;2023-05-08T09:46:42;96120;;;15.4;63.6
56558;BME280;43358;50.356;12.456;2023-05-08T09:47:46;96118;;;15.4;63.8
56558;BME280;43358;50.356;12.456;2023-05-08T09:49:55;96120;;;15.5;63
56558;BME280;43358;50.356;12.456;2023-05-08T09:50:42;96119;;;15.5;62.6
56558;BME280;43358;50.356;12.456;2023-05-08T09:51:50;96119;;;15.5;61.7
56558;BME280;43358;50.356;12.456;2023-05-08T09:52:44;96120;;;15.6;61.7
56558;BME280;43358;50.356;12.456;2023-05-08T09:53:42;96120;;;15.6;62.4
56558;BME280;43358;50.356;12.456;2023-05-08T09:54:42;96119;;;15.6;62.4
56558;BME280;43358;50.356;12.456;2023-05-08T09:55:45;96113;;;15.6;60.6
56558;BME280;43358;50.356;12.456;2023-05-08T09:56:42;96122;;;15.6;61.8
56558;BME280;43358;50.356;12.456;2023-05-08T09:59:42;96116;;;15.6;61.7
56558;BME280;43358;50.356;12.456;2023-05-08T10:01:47;96123;;;15.7;63.1
56558;BME280;43358;50.356;12.456;2023-05-08T10:02:53;96119;;;15.7;61.8
56558;BME280;43358;50.356;12.456;2023-05-08T10:03:51;96118;;;15.7;62.2
56558;BME280;43358;50.356;12.456;2023-05-08T10:04:53;96119;;;15.8;61.7
56558;BME280;43358;50.356;12.456;2023-05-08T10:06:04;96119;;;15.8;61.6
56558;BME280;43358;50.356;12.456;2023-05-08T10:06:57;96117;;;15.8;60.9
56558;BME280;43358;50.356;12.456;2023-05-08T10:08:16;96119;;;15.8;60.8
56558;BME280;43358;50.356;12.456;2023-05-08T10:09:06;96121;;;15.8;61.4
56558;BME280;43358;50.356;12.456;2023-05-08T10:10:04;96116;;;15.7;63.6
56558;BME280;43358;50.356;12.456;2023-05-08T10:12:09;96120;;;15.9;62.4
56558;BME280;43358;50.356;12.456;2023-05-08T10:13:11;96123;;;15.9;61.8
56558;BME280;43358;50.356;12.456;2023-05-08T10:14:13;96117;;;16;62.3
56558;BME280;43358;50.356;12.456;2023-05-08T10:15:15;96117;;;16.1;63
56558;BME280;43358;50.356;12.456;2023-05-08T10:16:17;96118;;;16.1;61.2
56558;BME280;43358;50.356;12.456;2023-05-08T10:17:19;96118;;;16.2;61.8
56558;BME280;43358;50.356;12.456;2023-05-08T10:18:21;96118;;;16.2;61.8
56558;BME280;43358;50.356;12.456;2023-05-08T10:19:23;96119;;;16.3;62.4
56558;BME280;43358;50.356;12.456;2023-05-08T10:20:25;96109;;;16.3;61.1
56558;BME280;43358;50.356;12.456;2023-05-08T10:21:27;96111;;;16.4;61.2
56558;BME280;43358;50.356;12.456;2023-05-08T10:22:29;96114;;;16.4;62
56558;BME280;43358;50.356;12.456;2023-05-08T10:23:42;96113;;;16.4;63.3
56558;BME280;43358;50.356;12.456;2023-05-08T10:25:44;96115;;;16.5;63.7
56558;BME280;43358;50.356;12.456;2023-05-08T10:26:43;96109;;;16.5;62.8
56558;BME280;43358;50.356;12.456;2023-05-08T10:28:43;96109;;;16.6;61.2
56558;BME280;43358;50.356;12.456;2023-05-08T16:55:27;96107;;;16.6;59.8
56558;BME280;43358;50.356;12.456;2023-05-08T16:55:27;96108;;;16.6;61.1
56558;BME280;43358;50.356;12.456;2023-05-08T16:58:33;95993;;;16.2;58.5
56558;BME280;43358;50.356;12.456;2023-05-08T16:58:33;95991;;;16.3;58.9
56558;BME280;43358;50.356;12.456;2023-05-08T16:59:06;95991;;;16.2;58.6
56558;BME280;43358;50.356;12.456;2023-05-08T17:00:09;95988;;;16.2;59.3
56558;BME280;43358;50.356;12.456;2023-05-08T17:01:10;95989;;;16.3;59.2
56558;BME280;43358;50.356;12.456;2023-05-08T17:03:14;95991;;;16.2;60.6
56558;BME280;43358;50.356;12.456;2023-05-08T17:05:19;95990;;;16.2;60.3
56558;BME280;43358;50.356;12.456;2023-05-08T17:06:21;95991;;;16.3;60.3
56558;BME280;43358;50.356;12.456;2023-05-08T17:08:41;95993;;;16.3;59.6
56558;BME280;43358;50.356;12.456;2023-05-08T17:08:42;95995;;;16.4;61
56558;BME280;43358;50.356;12.456;2023-05-08T17:16:54;95994;;;16.4;60.7
56558;BME280;43358;50.356;12.456;2023-05-08T17:16:56;95993;;;16.4;59.2
56558;BME280;43358;50.356;12.456;2023-05-08T17:17:09;96004;;;16.5;59.8
56558;BME280;43358;50.356;12.456;2023-05-08T17:19:03;96003;;;17.7;57.6
56558;BME280;43358;50.356;12.456;2023-05-08T17:20:07;96006;;;17.9;57.1
56558;BME280;43358;50.356;12.456;2023-05-08T17:21:11;96002;;;18;56.7
56558;BME280;43358;50.356;12.456;2023-05-08T18:10:26;95999;;;18.2;55.7
56558;BME280;43358;50.356;12.456;2023-05-08T18:10:26;96004;;;18.2;55.9
56558;BME280;43358;50.356;12.456;2023-05-08T18:10:55;96019;;;15.4;60.3
56558;BME280;43358;50.356;12.456;2023-05-08T18:11:58;96020;;;15.3;60.7
56558;BME280;43358;50.356;12.456;2023-05-08T18:13:00;96018;;;15.3;60.2
56558;BME280;43358;50.356;12.456;2023-05-08T18:16:57;96019;;;15.2;61.3
56558;BME280;43358;50.356;12.456;2023-05-08T18:17:08;96021;;;15.1;62
56558;BME280;43358;50.356;12.456;2023-05-08T18:18:10;96023;;;15.1;61.7
56558;BME280;43358;50.356;12.456;2023-05-08T18:51:44;96023;;;15.1;61.7
56558;BME280;43358;50.356;12.456;2023-05-08T19:00:38;96023;;;14;64.3
56558;BME280;43358;50.356;12.456;2023-05-08T19:00:38;96043;;;14;64.3
56558;BME280;43358;50.356;12.456;2023-05-08T19:02:37;96053;;;13.4;65.7
56558;BME280;43358;50.356;12.456;2023-05-08T19:03:37;96052;;;13.4;66.1
56558;BME280;43358;50.356;12.456;2023-05-08T19:04:37;96052;;;13.3;66.3
56558;BME280;43358;50.356;12.456;2023-05-08T19:06:37;96054;;;13.3;66.6
56558;BME280;43358;50.356;12.456;2023-05-08T19:07:37;96055;;;13.3;68.8
56558;BME280;43358;50.356;12.456;2023-05-08T19:09:37;96055;;;13.2;67.8
56558;BME280;43358;50.356;12.456;2023-05-08T19:10:37;96056;;;13.1;68.2
56558;BME280;43358;50.356;12.456;2023-05-08T19:17:08;96057;;;13;67.6
56558;BME280;43358;50.356;12.456;2023-05-08T19:17:08;96056;;;13;67.4
56558;BME280;43358;50.356;12.456;2023-05-08T19:17:37;96060;;;13;68.7
56558;BME280;43358;50.356;12.456;2023-05-08T19:18:37;96066;;;12.9;68.5
56558;BME280;43358;50.356;12.456;2023-05-08T19:19:37;96070;;;12.9;69.1
56558;BME280;43358;50.356;12.456;2023-05-08T19:22:41;96066;;;12.8;69
56558;BME280;43358;50.356;12.456;2023-05-08T19:23:45;96068;;;12.8;68.7
56558;BME280;43358;50.356;12.456;2023-05-08T19:24:47;96066;;;12.7;68.8
56558;BME280;43358;50.356;12.456;2023-05-08T19:25:49;96065;;;12.7;69
56558;BME280;43358;50.356;12.456;2023-05-08T19:29:37;96067;;;12.6;69.8
56558;BME280;43358;50.356;12.456;2023-05-08T19:30:37;96067;;;12.6;69.8
